Time;durP1;ratioP1;P1;durP2;ratioP2;P2;SDS_P1;SDS_P2;PMS_P1;PMS_P2;Temp;Humidity;BMP_temperature;BMP_pressure;BME280_temperature;BME280_humidity;BME280_pressure;Samples;Min_cycle;Max_cycle;Signal;HPM_P1;HPM_P2
2021/07/25 00:01:40;;;;;;;30.87;24.63;;;;;;;;;;5114265;28;20469;-52
2021/07/25 00:04:07;;;;;;;33.63;28.53;;;;;;;;;;5115466;28;20434;-57
2021/07/25 00:06:37;;;;;;;49.83;43.90;;;;;;;;;;5114394;28;20531;-56
2021/07/25 00:09:04;;;;;;;34.13;27.50;;;;;;;;;;5115828;28;20538;-52
2021/07/25 00:11:33;;;;;;;30.90;26.40;;;;;;;;;;5116626;28;20453;-55
2021/07/25 00:14:04;;;;;;;19.67;15.37;;;;;;;;;;5116380;28;20490;-55
2021/07/25 00:16:31;;;;;;;24.93;15.60;;;;;;;;;;5112707;28;20545;-56
2021/07/25 00:19:30;;;;;;;28.53;22.60;;;;;;;;;;5115727;28;20450;-55
2021/07/25 00:21:58;;;;;;;32.27;23.67;;;;;;;;;;5115920;28;20493;-57
2021/07/25 00:24:30;;;;;;;40.10;32.60;;;;;;;;;;5116587;28;20472;-56
2021/07/25 00:27:05;;;;;;;30.37;23.70;;;;;;;;;;5110810;28;20462;-56
2021/07/25 00:29:32;;;;;;;32.13;27.13;;;;;;;;;;5097875;28;20469;-57
2021/07/25 00:32:00;;;;;;;41.03;28.17;;;;;;;;;;5115058;28;20490;-53
2021/07/25 00:34:28;;;;;;;35.63;29.23;;;;;;;;;;5115116;28;20489;-52
2021/07/25 00:36:56;;;;;;;59.03;49.90;;;;;;;;;;5115693;28;20728;-54
2021/07/25 00:39:23;;;;;;;22.77;16.77;;;;;;;;;;5106492;28;20526;-54
2021/07/25 00:42:01;;;;;;;31.50;26.17;;;;;;;;;;5113627;28;20466;-52
2021/07/25 00:44:29;;;;;;;80.33;63.97;;;;;;;;;;5115586;28;20454;-56
2021/07/25 00:47:01;;;;;;;65.27;55.60;;;;;;;;;;5115399;28;20508;-55
2021/07/25 00:49:31;;;;;;;43.73;35.93;;;;;;;;;;5097572;28;20566;-56
2021/07/25 00:51:58;;;;;;;36.10;30.20;;;;;;;;;;5100801;28;20521;-57
2021/07/25 00:54:26;;;;;;;54.23;45.63;;;;;;;;;;5092535;28;20474;-58
2021/07/25 00:56:54;;;;;;;26.37;22.07;;;;;;;;;;5095573;28;20450;-55
2021/07/25 00:59:22;;;;;;;51.60;35.83;;;;;;;;;;5094525;28;20706;-55
2021/07/25 01:01:52;;;;;;;18.47;14.07;;;;;;;;;;5086485;28;20453;-52
2021/07/25 01:04:43;;;;;;;18.40;13.10;;;;;;;;;;5074598;28;20522;-53
2021/07/25 01:07:15;;;;;;;18.40;12.40;;;;;;;;;;5103659;28;20494;-55
2021/07/25 01:09:45;;;;;;;17.50;14.73;;;;;;;;;;5115534;28;20481;-57
2021/07/25 01:12:39;;;;;;;16.93;15.10;;;;;;;;;;5115408;28;20465;-55
2021/07/25 01:15:07;;;;;;;18.27;14.47;;;;;;;;;;5113023;28;20502;-55
2021/07/25 01:17:36;;;;;;;16.87;13.80;;;;;;;;;;5113375;28;20447;-49
2021/07/25 01:20:06;;;;;;;17.37;14.20;;;;;;;;;;5094867;28;20483;-56
2021/07/25 01:22:35;;;;;;;20.90;14.73;;;;;;;;;;5095003;28;20448;-55
2021/07/25 01:25:11;;;;;;;14.73;12.83;;;;;;;;;;5094836;28;20447;-57
2021/07/25 01:27:42;;;;;;;17.60;14.10;;;;;;;;;;5094526;28;20458;-56
2021/07/25 01:30:12;;;;;;;18.77;14.90;;;;;;;;;;5095495;28;20484;-54
2021/07/25 01:32:41;;;;;;;17.53;13.80;;;;;;;;;;5114481;28;20615;-55
2021/07/25 01:35:12;;;;;;;22.00;15.27;;;;;;;;;;5114925;28;20478;-55
2021/07/25 01:37:40;;;;;;;16.67;13.63;;;;;;;;;;5115489;28;20455;-56
2021/07/25 01:43:14;;;;;;;16.47;13.90;;;;;;;;;;5115072;28;20404;-54
2021/07/25 01:45:41;;;;;;;17.00;13.90;;;;;;;;;;5115647;28;20558;-53
2021/07/25 01:48:19;;;;;;;19.87;15.07;;;;;;;;;;5115151;28;20461;-53
2021/07/25 01:50:47;;;;;;;19.03;15.80;;;;;;;;;;5114900;28;20456;-57
2021/07/25 01:53:15;;;;;;;24.73;14.17;;;;;;;;;;5115174;28;20454;-54
2021/07/25 01:55:53;;;;;;;17.73;13.10;;;;;;;;;;5114976;28;20520;-57
2021/07/25 01:58:20;;;;;;;16.40;13.80;;;;;;;;;;5115366;28;20489;-54
2021/07/25 02:00:47;;;;;;;15.30;13.10;;;;;;;;;;5115229;28;20436;-53
2021/07/25 02:03:20;;;;;;;16.70;13.60;;;;;;;;;;5115182;28;20484;-52
2021/07/25 02:05:48;;;;;;;20.63;13.13;;;;;;;;;;5114761;28;20464;-56
2021/07/25 02:08:16;;;;;;;21.00;14.00;;;;;;;;;;5100292;28;20594;-53
2021/07/25 02:11:16;;;;;;;16.03;12.47;;;;;;;;;;5099130;28;20473;-57
2021/07/25 02:13:43;;;;;;;14.97;12.40;;;;;;;;;;5115126;28;20504;-54
2021/07/25 02:16:11;;;;;;;14.60;11.80;;;;;;;;;;5115610;28;20445;-56
2021/07/25 02:19:09;;;;;;;14.93;12.63;;;;;;;;;;5114979;28;20483;-56
2021/07/25 02:21:38;;;;;;;15.60;13.03;;;;;;;;;;5113349;28;20463;-57
2021/07/25 02:24:06;;;;;;;67.33;56.03;;;;;;;;;;5114925;28;20453;-52
2021/07/25 02:26:45;;;;;;;29.60;23.57;;;;;;;;;;5114347;28;20523;-52
2021/07/25 02:29:13;;;;;;;53.00;39.57;;;;;;;;;;5112790;28;20555;-55
2021/07/25 02:31:40;;;;;;;48.30;34.73;;;;;;;;;;5115326;28;20456;-54
2021/07/25 02:34:19;;;;;;;19.60;15.43;;;;;;;;;;5115369;28;20530;-56
2021/07/25 02:36:48;;;;;;;14.43;11.70;;;;;;;;;;5101197;28;20450;-53
2021/07/25 02:39:16;;;;;;;16.00;11.67;;;;;;;;;;5095140;28;20474;-57
2021/07/25 02:42:03;;;;;;;14.80;12.33;;;;;;;;;;5094520;28;20485;-54
2021/07/25 02:44:30;;;;;;;18.57;13.63;;;;;;;;;;5094978;28;20475;-54
2021/07/25 02:46:58;;;;;;;16.20;12.50;;;;;;;;;;5087970;28;20463;-56
2021/07/25 02:49:27;;;;;;;25.03;13.07;;;;;;;;;;5115328;28;20468;-53
2021/07/25 02:51:56;;;;;;;18.73;13.00;;;;;;;;;;5099793;28;20497;-54
2021/07/25 02:54:24;;;;;;;15.00;12.33;;;;;;;;;;5094351;28;20568;-52
2021/07/25 02:57:14;;;;;;;22.13;14.93;;;;;;;;;;5095137;28;20468;-53
2021/07/25 02:59:41;;;;;;;21.30;16.03;;;;;;;;;;5094998;28;20508;-54
2021/07/25 03:02:08;;;;;;;16.63;12.03;;;;;;;;;;5094284;28;20435;-52
2021/07/25 03:05:11;;;;;;;15.80;12.30;;;;;;;;;;5094353;28;20456;-56
2021/07/25 03:07:41;;;;;;;15.30;11.10;;;;;;;;;;5094225;28;20447;-56
2021/07/25 03:10:09;;;;;;;16.43;12.40;;;;;;;;;;5094923;28;20468;-55
2021/07/25 03:12:42;;;;;;;16.03;12.37;;;;;;;;;;5095002;28;20482;-55
2021/07/25 03:15:10;;;;;;;16.17;14.03;;;;;;;;;;5100150;28;20485;-53
2021/07/25 03:17:37;;;;;;;17.23;12.37;;;;;;;;;;5114993;28;20922;-55
2021/07/25 03:20:05;;;;;;;22.53;19.27;;;;;;;;;;5115357;28;20452;-52
2021/07/25 03:22:34;;;;;;;18.00;12.73;;;;;;;;;;5115250;28;20629;-54
2021/07/25 03:25:09;;;;;;;23.43;14.60;;;;;;;;;;5115279;28;20516;-57
2021/07/25 03:27:36;;;;;;;15.47;12.30;;;;;;;;;;5115427;28;20474;-53
2021/07/25 03:30:07;;;;;;;14.80;12.20;;;;;;;;;;5114642;28;20451;-55
2021/07/25 03:33:00;;;;;;;16.20;11.90;;;;;;;;;;5114623;28;20487;-55
2021/07/25 03:35:27;;;;;;;22.03;13.47;;;;;;;;;;5113120;28;20499;-56
2021/07/25 03:37:54;;;;;;;25.53;21.47;;;;;;;;;;5117530;28;20501;-51
2021/07/25 03:40:29;;;;;;;16.20;12.83;;;;;;;;;;5119313;28;20489;-55
2021/07/25 03:42:56;;;;;;;16.50;13.37;;;;;;;;;;5116839;28;20556;-51
2021/07/25 03:45:23;;;;;;;21.33;19.13;;;;;;;;;;5118699;28;20544;-54
2021/07/25 03:47:54;;;;;;;18.37;14.70;;;;;;;;;;5118680;28;20510;-53
2021/07/25 03:50:22;;;;;;;15.13;13.20;;;;;;;;;;5118453;28;20461;-54
2021/07/25 03:52:51;;;;;;;14.07;12.57;;;;;;;;;;5101726;28;20437;-55
2021/07/25 03:55:33;;;;;;;17.87;13.03;;;;;;;;;;5097720;28;20525;-53
2021/07/25 03:58:04;;;;;;;18.20;12.03;;;;;;;;;;5104124;28;20866;-56
2021/07/25 04:00:31;;;;;;;15.80;12.33;;;;;;;;;;5118005;28;20476;-54
2021/07/25 04:06:02;;;;;;;14.80;12.10;;;;;;;;;;5116422;28;20500;-52
2021/07/25 04:08:30;;;;;;;17.30;13.63;;;;;;;;;;5118698;28;20460;-53
2021/07/25 04:11:05;;;;;;;16.00;12.60;;;;;;;;;;5118192;28;20463;-54
2021/07/25 04:13:33;;;;;;;13.60;11.97;;;;;;;;;;5118187;28;20512;-57
2021/07/25 04:16:01;;;;;;;16.90;11.20;;;;;;;;;;5118653;28;20467;-56
2021/07/25 04:18:35;;;;;;;11.37;9.97;;;;;;;;;;5118208;28;20455;-55
2021/07/25 04:21:03;;;;;;;14.70;11.90;;;;;;;;;;5117795;28;20463;-56
2021/07/25 04:23:30;;;;;;;13.10;11.70;;;;;;;;;;5118179;28;20522;-54
2021/07/25 04:25:58;;;;;;;13.60;11.27;;;;;;;;;;5118569;28;20463;-57
2021/07/25 04:28:27;;;;;;;14.33;11.80;;;;;;;;;;5118546;28;20416;-56
2021/07/25 04:31:00;;;;;;;30.53;20.43;;;;;;;;;;5118089;28;20505;-54
2021/07/25 04:33:29;;;;;;;22.60;15.60;;;;;;;;;;5115668;28;20454;-54
2021/07/25 04:35:56;;;;;;;38.07;26.73;;;;;;;;;;5106116;28;20476;-50
2021/07/25 04:38:25;;;;;;;26.40;18.83;;;;;;;;;;5097667;28;20511;-54
2021/07/25 04:40:55;;;;;;;20.27;15.17;;;;;;;;;;5108445;28;20501;-55
2021/07/25 04:43:23;;;;;;;21.33;16.13;;;;;;;;;;5117231;28;20476;-55
2021/07/25 04:46:14;;;;;;;23.83;19.37;;;;;;;;;;5117041;28;20489;-55
2021/07/25 04:48:47;;;;;;;21.97;14.30;;;;;;;;;;5116256;28;20477;-52
2021/07/25 04:51:18;;;;;;;21.20;14.50;;;;;;;;;;5117508;28;20444;-55
2021/07/25 04:53:55;;;;;;;16.20;11.40;;;;;;;;;;5104935;28;20431;-58
2021/07/25 04:56:25;;;;;;;12.20;9.97;;;;;;;;;;5096729;28;20491;-55
2021/07/25 04:58:58;;;;;;;18.73;15.63;;;;;;;;;;5110721;28;20482;-56
2021/07/25 05:01:53;;;;;;;21.30;17.60;;;;;;;;;;5117477;28;20496;-56
2021/07/25 05:04:23;;;;;;;21.13;16.13;;;;;;;;;;5098385;28;20510;-51
2021/07/25 05:06:51;;;;;;;16.43;11.07;;;;;;;;;;5097177;28;20459;-56
2021/07/25 05:09:30;;;;;;;12.33;9.97;;;;;;;;;;5097314;28;20452;-55
2021/07/25 05:12:09;;;;;;;11.27;9.40;;;;;;;;;;5109779;28;20504;-57
2021/07/25 05:14:38;;;;;;;10.63;9.47;;;;;;;;;;5109460;28;20459;-58
2021/07/25 05:17:13;;;;;;;14.63;10.87;;;;;;;;;;5096862;28;20520;-56
2021/07/25 05:22:50;;;;;;;12.50;9.87;;;;;;;;;;5111132;28;20501;-56
2021/07/25 05:25:18;;;;;;;11.37;8.93;;;;;;;;;;5097104;28;20536;-57
2021/07/25 05:27:47;;;;;;;25.67;17.13;;;;;;;;;;5097404;28;20440;-56
2021/07/25 05:30:34;;;;;;;11.03;9.03;;;;;;;;;;5096942;28;20456;-57
2021/07/25 05:33:01;;;;;;;19.73;14.50;;;;;;;;;;5096472;28;20481;-54
2021/07/25 05:35:30;;;;;;;12.80;10.13;;;;;;;;;;5096301;28;20483;-57
2021/07/25 05:38:02;;;;;;;11.73;8.87;;;;;;;;;;5096753;28;20460;-56
2021/07/25 05:40:29;;;;;;;9.70;7.33;;;;;;;;;;5096767;28;20486;-56
2021/07/25 05:42:58;;;;;;;10.97;7.93;;;;;;;;;;5096729;28;20442;-55
2021/07/25 05:45:35;;;;;;;10.20;8.10;;;;;;;;;;5096667;28;20717;-54
2021/07/25 05:48:02;;;;;;;8.70;7.13;;;;;;;;;;5096706;28;20456;-56
2021/07/25 05:50:31;;;;;;;10.43;8.33;;;;;;;;;;5096669;28;20448;-56
2021/07/25 05:52:59;;;;;;;8.40;7.07;;;;;;;;;;5096495;28;20470;-54
2021/07/25 05:55:36;;;;;;;8.37;7.20;;;;;;;;;;5096199;28;20472;-57
2021/07/25 05:58:18;;;;;;;9.10;6.97;;;;;;;;;;5107478;28;20455;-57
2021/07/25 06:00:45;;;;;;;10.67;6.40;;;;;;;;;;5116096;28;20531;-56
2021/07/25 06:03:18;;;;;;;11.60;8.43;;;;;;;;;;5116304;28;20443;-56
2021/07/25 06:05:49;;;;;;;8.07;6.00;;;;;;;;;;5116427;28;20447;-58
2021/07/25 06:08:16;;;;;;;9.37;7.33;;;;;;;;;;5114012;28;20485;-55
2021/07/25 06:10:44;;;;;;;7.87;6.30;;;;;;;;;;5116667;28;20455;-54
2021/07/25 06:13:12;;;;;;;15.20;7.20;;;;;;;;;;5116206;28;20467;-52
2021/07/25 06:15:42;;;;;;;9.13;6.60;;;;;;;;;;5116036;28;20540;-56
2021/07/25 06:18:21;;;;;;;9.90;6.87;;;;;;;;;;5096970;28;20439;-53
2021/07/25 06:20:50;;;;;;;9.60;7.40;;;;;;;;;;5095588;28;20452;-55
2021/07/25 06:23:17;;;;;;;6.90;6.17;;;;;;;;;;5095540;28;20575;-56
2021/07/25 06:25:51;;;;;;;9.10;6.80;;;;;;;;;;5095602;28;20456;-56
2021/07/25 06:28:18;;;;;;;8.27;7.17;;;;;;;;;;5095503;28;20471;-57
2021/07/25 06:30:46;;;;;;;9.70;7.33;;;;;;;;;;5101991;28;20459;-56
2021/07/25 06:33:24;;;;;;;8.03;6.70;;;;;;;;;;5115737;28;20442;-57
2021/07/25 06:35:53;;;;;;;7.87;5.67;;;;;;;;;;5116469;28;20524;-58
2021/07/25 06:38:20;;;;;;;10.50;5.63;;;;;;;;;;5116050;28;20489;-56
2021/07/25 06:40:54;;;;;;;9.20;5.80;;;;;;;;;;5116420;28;20439;-56
2021/07/25 06:43:22;;;;;;;7.40;4.90;;;;;;;;;;5115865;28;20490;-56
2021/07/25 06:45:49;;;;;;;8.67;5.70;;;;;;;;;;5115988;28;20463;-57
2021/07/25 06:48:24;;;;;;;8.90;5.40;;;;;;;;;;5116503;28;20466;-57
2021/07/25 06:50:54;;;;;;;9.53;6.83;;;;;;;;;;5115694;28;20442;-56
2021/07/25 06:53:22;;;;;;;6.67;5.47;;;;;;;;;;5115661;28;20448;-54
2021/07/25 06:55:49;;;;;;;7.03;4.73;;;;;;;;;;5116177;28;20534;-57
2021/07/25 06:58:17;;;;;;;5.83;5.00;;;;;;;;;;5115822;28;20481;-54
2021/07/25 07:00:56;;;;;;;6.73;4.43;;;;;;;;;;5111985;28;20446;-57
2021/07/25 07:03:23;;;;;;;9.87;5.40;;;;;;;;;;5103557;28;20459;-56
2021/07/25 07:05:51;;;;;;;6.63;5.20;;;;;;;;;;5112578;28;20451;-53
2021/07/25 07:08:23;;;;;;;7.13;5.30;;;;;;;;;;5108026;28;20498;-55
2021/07/25 07:10:51;;;;;;;7.57;5.80;;;;;;;;;;5095102;28;20482;-56
2021/07/25 07:16:10;;;;;;;6.47;5.23;;;;;;;;;;5104720;28;20479;-55
2021/07/25 07:18:43;;;;;;;6.30;5.03;;;;;;;;;;5099246;28;20468;-54
2021/07/25 07:21:28;;;;;;;8.27;5.37;;;;;;;;;;5099134;28;20468;-57
2021/07/25 07:23:57;;;;;;;6.53;5.23;;;;;;;;;;5112079;28;20919;-56
2021/07/25 07:26:24;;;;;;;7.60;4.97;;;;;;;;;;5119208;28;20431;-55
2021/07/25 07:28:58;;;;;;;9.67;5.30;;;;;;;;;;5119200;28;20524;-52
2021/07/25 07:31:25;;;;;;;8.00;4.53;;;;;;;;;;5119071;28;20451;-57
2021/07/25 07:33:54;;;;;;;8.03;4.10;;;;;;;;;;5118526;28;20435;-56
2021/07/25 07:36:22;;;;;;;8.50;5.00;;;;;;;;;;5113519;28;20586;-58
2021/07/25 07:38:50;;;;;;;8.83;4.83;;;;;;;;;;5110801;28;20444;-57
2021/07/25 07:41:19;;;;;;;7.80;4.53;;;;;;;;;;5097810;28;20482;-61
2021/07/25 07:43:53;;;;;;;10.10;4.07;;;;;;;;;;5100726;28;20460;-55
2021/07/25 07:46:20;;;;;;;8.13;4.20;;;;;;;;;;5118596;28;20476;-56
2021/07/25 07:48:48;;;;;;;7.20;4.27;;;;;;;;;;5118417;28;20461;-56
2021/07/25 07:51:19;;;;;;;6.53;4.00;;;;;;;;;;5104668;28;20456;-54
2021/07/25 07:53:55;;;;;;;6.60;4.40;;;;;;;;;;5101522;28;20506;-57
2021/07/25 07:56:26;;;;;;;4.57;4.00;;;;;;;;;;5111234;28;20649;-55
2021/07/25 08:01:47;;;;;;;12.00;4.47;;;;;;;;;;5118434;28;20510;-58
2021/07/25 08:04:35;;;;;;;8.00;4.80;;;;;;;;;;5110763;28;20496;-59
2021/07/25 08:07:14;;;;;;;8.83;4.60;;;;;;;;;;5096678;28;20540;-59
2021/07/25 08:09:43;;;;;;;6.00;4.27;;;;;;;;;;5097721;28;20493;-59
2021/07/25 08:12:13;;;;;;;5.97;4.10;;;;;;;;;;5107953;28;20441;-58
2021/07/25 08:14:41;;;;;;;6.70;4.53;;;;;;;;;;5117586;28;20462;-57
2021/07/25 08:17:24;;;;;;;6.60;4.60;;;;;;;;;;5097144;28;20487;-59
2021/07/25 08:19:52;;;;;;;6.27;4.03;;;;;;;;;;5115368;28;20513;-60
2021/07/25 08:22:22;;;;;;;8.20;4.13;;;;;;;;;;5117092;28;20492;-57
2021/07/25 08:24:55;;;;;;;5.50;3.90;;;;;;;;;;5114838;28;20470;-60
2021/07/25 08:27:24;;;;;;;13.87;3.73;;;;;;;;;;5097699;28;20511;-55
2021/07/25 08:29:52;;;;;;;7.10;4.00;;;;;;;;;;5106861;28;20455;-55
2021/07/25 08:32:38;;;;;;;11.50;4.70;;;;;;;;;;5112846;28;20459;-55
2021/07/25 08:35:06;;;;;;;8.23;3.87;;;;;;;;;;5114162;28;20467;-56
2021/07/25 08:37:34;;;;;;;7.93;3.80;;;;;;;;;;5115314;28;20498;-56
2021/07/25 08:40:10;;;;;;;6.70;4.57;;;;;;;;;;5103593;28;20456;-57
2021/07/25 08:42:44;;;;;;;9.90;4.40;;;;;;;;;;5108595;28;20740;-57
2021/07/25 08:45:13;;;;;;;5.13;3.87;;;;;;;;;;5114843;28;20479;-58
2021/07/25 08:47:42;;;;;;;6.80;3.50;;;;;;;;;;5115010;28;20446;-57
2021/07/25 08:50:11;;;;;;;7.47;3.90;;;;;;;;;;5101996;28;20478;-56
2021/07/25 08:52:39;;;;;;;6.50;4.87;;;;;;;;;;5097117;28;20432;-58
2021/07/25 08:55:19;;;;;;;5.20;3.97;;;;;;;;;;5094665;28;20521;-56
2021/07/25 08:57:48;;;;;;;5.03;3.30;;;;;;;;;;5103730;28;20482;-57
2021/07/25 09:03:02;;;;;;;7.73;4.13;;;;;;;;;;5081069;28;20451;-57
2021/07/25 09:05:30;;;;;;;5.93;4.13;;;;;;;;;;5098641;28;20615;-58
2021/07/25 09:08:11;;;;;;;6.20;4.70;;;;;;;;;;5108712;28;20458;-56
2021/07/25 09:10:38;;;;;;;6.53;4.03;;;;;;;;;;5109473;28;20455;-61
2021/07/25 09:13:07;;;;;;;8.60;3.80;;;;;;;;;;5115548;28;20475;-56
2021/07/25 09:15:35;;;;;;;10.53;3.60;;;;;;;;;;5095296;28;20530;-53
2021/07/25 09:18:03;;;;;;;9.90;3.87;;;;;;;;;;5112675;28;20466;-57
2021/07/25 09:20:38;;;;;;;7.20;4.60;;;;;;;;;;5107683;28;20458;-58
2021/07/25 09:23:14;;;;;;;9.37;4.53;;;;;;;;;;5096450;28;20448;-56
2021/07/25 09:25:53;;;;;;;9.30;4.67;;;;;;;;;;5115166;28;20455;-58
2021/07/25 09:31:36;;;;;;;5.00;3.70;;;;;;;;;;5102615;28;20426;-56
2021/07/25 09:34:04;;;;;;;9.20;4.40;;;;;;;;;;5111617;28;20443;-55
2021/07/25 09:36:33;;;;;;;13.40;5.00;;;;;;;;;;5114252;28;20536;-54
2021/07/25 09:39:01;;;;;;;6.40;3.30;;;;;;;;;;5114464;28;20487;-59
2021/07/25 09:41:29;;;;;;;8.20;4.30;;;;;;;;;;5113415;28;20548;-59
2021/07/25 09:44:01;;;;;;;5.40;3.27;;;;;;;;;;5115595;28;20478;-59
2021/07/25 09:46:41;;;;;;;8.50;4.13;;;;;;;;;;5115451;28;20452;-53
2021/07/25 09:49:49;;;;;;;6.13;3.70;;;;;;;;;;5115960;28;20469;-57
2021/07/25 09:52:17;;;;;;;10.30;5.73;;;;;;;;;;5114442;28;20451;-56
2021/07/25 09:54:56;;;;;;;15.40;4.60;;;;;;;;;;5115143;28;20447;-55
2021/07/25 09:57:25;;;;;;;8.10;4.13;;;;;;;;;;5099315;28;20487;-56
2021/07/25 09:59:56;;;;;;;5.87;3.07;;;;;;;;;;5114186;28;20556;-58
2021/07/25 10:02:42;;;;;;;5.00;3.50;;;;;;;;;;5099802;28;20436;-58
2021/07/25 10:05:10;;;;;;;7.00;4.10;;;;;;;;;;5102242;28;20463;-57
2021/07/25 10:07:40;;;;;;;5.00;2.90;;;;;;;;;;5093570;28;20929;-58
2021/07/25 10:10:15;;;;;;;4.60;3.30;;;;;;;;;;5092235;28;20462;-56
2021/07/25 10:12:43;;;;;;;5.33;3.03;;;;;;;;;;5106772;28;20462;-55
2021/07/25 10:15:13;;;;;;;6.17;2.97;;;;;;;;;;5099651;28;20685;-56
2021/07/25 10:17:44;;;;;;;6.00;3.67;;;;;;;;;;5100075;28;20506;-55
2021/07/25 10:20:12;;;;;;;8.23;3.50;;;;;;;;;;5105144;28;20464;-55
2021/07/25 10:22:41;;;;;;;6.20;3.57;;;;;;;;;;5093733;28;20449;-53
2021/07/25 10:25:09;;;;;;;6.20;3.47;;;;;;;;;;5108126;28;20469;-56
2021/07/25 10:27:37;;;;;;;6.70;3.83;;;;;;;;;;5108725;28;20462;-58
2021/07/25 10:30:16;;;;;;;6.40;4.57;;;;;;;;;;5108802;28;20533;-56
2021/07/25 10:32:45;;;;;;;4.83;3.13;;;;;;;;;;5100207;28;20482;-55
2021/07/25 10:35:13;;;;;;;7.13;3.60;;;;;;;;;;5098824;28;20493;-57
2021/07/25 10:38:02;;;;;;;5.40;3.27;;;;;;;;;;5095778;28;20522;-56
2021/07/25 10:40:29;;;;;;;8.43;2.97;;;;;;;;;;5106515;28;20458;-55
2021/07/25 10:43:00;;;;;;;6.30;3.67;;;;;;;;;;5102341;28;20508;-56
2021/07/25 10:45:28;;;;;;;11.47;5.70;;;;;;;;;;5103046;28;20530;-57
2021/07/25 10:48:12;;;;;;;5.63;4.10;;;;;;;;;;5089934;28;20463;-52
2021/07/25 10:50:41;;;;;;;5.90;3.63;;;;;;;;;;5094067;28;20517;-55
2021/07/25 10:53:08;;;;;;;11.40;3.57;;;;;;;;;;5099264;28;20496;-56
2021/07/25 10:55:46;;;;;;;4.43;2.87;;;;;;;;;;5098492;28;20451;-56
2021/07/25 10:58:15;;;;;;;9.00;5.63;;;;;;;;;;5108459;28;20495;-56
2021/07/25 11:00:43;;;;;;;5.53;3.20;;;;;;;;;;5092157;28;20472;-55
2021/07/25 11:03:34;;;;;;;5.00;3.30;;;;;;;;;;5105356;28;20511;-54
2021/07/25 11:06:27;;;;;;;9.97;3.30;;;;;;;;;;5107438;28;20515;-57
2021/07/25 11:08:56;;;;;;;6.57;2.80;;;;;;;;;;5107729;28;20696;-57
2021/07/25 11:11:43;;;;;;;7.63;3.07;;;;;;;;;;5108117;28;20459;-54
2021/07/25 11:14:10;;;;;;;3.83;2.63;;;;;;;;;;5094950;28;20466;-52
2021/07/25 11:16:44;;;;;;;7.60;3.57;;;;;;;;;;5109043;28;20483;-55
2021/07/25 11:19:30;;;;;;;7.70;3.60;;;;;;;;;;5110284;28;20455;-56
2021/07/25 11:22:03;;;;;;;14.17;5.87;;;;;;;;;;5094923;28;20511;-58
2021/07/25 11:24:56;;;;;;;7.77;4.17;;;;;;;;;;5097164;28;20442;-56
2021/07/25 11:27:38;;;;;;;7.17;3.90;;;;;;;;;;5110943;28;20516;-55
2021/07/25 11:30:14;;;;;;;7.30;3.70;;;;;;;;;;5108038;28;20440;-56
2021/07/25 11:32:44;;;;;;;5.33;3.40;;;;;;;;;;5107829;28;20431;-56
2021/07/25 11:35:16;;;;;;;8.23;3.70;;;;;;;;;;5090369;28;20524;-58
2021/07/25 11:37:53;;;;;;;7.37;2.63;;;;;;;;;;5091899;28;20751;-58
2021/07/25 11:40:24;;;;;;;5.13;3.80;;;;;;;;;;5102044;28;20494;-57
2021/07/25 11:42:53;;;;;;;4.73;3.30;;;;;;;;;;5097225;28;20484;-57
2021/07/25 11:45:28;;;;;;;4.57;3.10;;;;;;;;;;5097358;28;20482;-54
2021/07/25 11:47:56;;;;;;;4.87;2.43;;;;;;;;;;5103114;28;20534;-56
2021/07/25 11:50:38;;;;;;;4.67;3.07;;;;;;;;;;5108544;28;20888;-57
2021/07/25 11:53:07;;;;;;;6.10;4.00;;;;;;;;;;5096698;28;20440;-58
2021/07/25 11:55:34;;;;;;;5.00;3.00;;;;;;;;;;5108622;28;20454;-57
2021/07/25 11:58:09;;;;;;;4.40;2.60;;;;;;;;;;5107837;28;20487;-56
2021/07/25 12:00:38;;;;;;;6.50;3.23;;;;;;;;;;5112542;28;20469;-57
2021/07/25 12:03:39;;;;;;;3.60;2.30;;;;;;;;;;5099888;28;20467;-60
2021/07/25 12:06:15;;;;;;;5.40;2.90;;;;;;;;;;5110377;28;20496;-59
2021/07/25 12:09:02;;;;;;;6.63;3.40;;;;;;;;;;5099121;28;20471;-57
2021/07/25 12:11:29;;;;;;;4.73;2.40;;;;;;;;;;5105434;28;20455;-57
2021/07/25 12:13:58;;;;;;;4.90;2.50;;;;;;;;;;5107624;28;20502;-57
2021/07/25 12:16:26;;;;;;;4.60;2.30;;;;;;;;;;5105732;28;20468;-57
2021/07/25 12:18:54;;;;;;;4.87;2.60;;;;;;;;;;5108584;28;20452;-58
2021/07/25 12:21:31;;;;;;;4.07;2.17;;;;;;;;;;5098709;28;20463;-52
2021/07/25 12:24:07;;;;;;;6.47;2.90;;;;;;;;;;5108963;28;20454;-59
2021/07/25 12:26:52;;;;;;;6.20;3.17;;;;;;;;;;5105109;28;20467;-59
2021/07/25 12:29:35;;;;;;;4.30;2.50;;;;;;;;;;5110720;28;20463;-55
2021/07/25 12:32:22;;;;;;;3.57;2.40;;;;;;;;;;5109309;28;20493;-58
2021/07/25 12:34:49;;;;;;;4.00;2.20;;;;;;;;;;5107739;28;20451;-57
2021/07/25 12:37:26;;;;;;;4.70;2.80;;;;;;;;;;5109765;28;20475;-59
2021/07/25 12:40:11;;;;;;;5.60;3.00;;;;;;;;;;5105218;28;20477;-59
2021/07/25 12:42:40;;;;;;;5.40;3.23;;;;;;;;;;5110664;28;20479;-59
2021/07/25 12:45:27;;;;;;;3.63;1.93;;;;;;;;;;5108825;28;20448;-56
2021/07/25 12:48:13;;;;;;;5.83;2.60;;;;;;;;;;5110279;28;20455;-56
2021/07/25 12:50:57;;;;;;;5.90;2.43;;;;;;;;;;5109297;28;20739;-58
2021/07/25 12:53:49;;;;;;;7.20;3.17;;;;;;;;;;5110160;28;20540;-57
2021/07/25 12:56:18;;;;;;;4.33;2.30;;;;;;;;;;5071974;28;20468;-58
2021/07/25 12:58:48;;;;;;;5.43;1.80;;;;;;;;;;5089836;28;20491;-57
2021/07/25 13:04:06;;;;;;;6.10;3.10;;;;;;;;;;5111147;28;20447;-58
2021/07/25 13:06:38;;;;;;;7.70;2.57;;;;;;;;;;5089879;28;20484;-56
2021/07/25 13:09:07;;;;;;;4.30;2.80;;;;;;;;;;5089670;28;20461;-53
2021/07/25 13:11:36;;;;;;;6.47;2.50;;;;;;;;;;5091102;28;20936;-55
2021/07/25 13:14:08;;;;;;;3.80;2.20;;;;;;;;;;5089822;28;20456;-57
2021/07/25 13:16:36;;;;;;;3.80;2.87;;;;;;;;;;5109130;28;20652;-59
2021/07/25 13:19:04;;;;;;;4.33;2.20;;;;;;;;;;5105566;28;20569;-59
2021/07/25 13:21:44;;;;;;;4.63;2.43;;;;;;;;;;5104803;28;20451;-60
2021/07/25 13:27:04;;;;;;;4.60;2.40;;;;;;;;;;5106182;28;20455;-59
2021/07/25 13:29:35;;;;;;;6.07;2.50;;;;;;;;;;5104786;28;20466;-58
2021/07/25 13:32:24;;;;;;;6.80;5.87;;;;;;;;;;5076648;28;20452;-56
2021/07/25 13:34:54;;;;;;;3.17;1.93;;;;;;;;;;5097590;28;20445;-54
2021/07/25 13:37:29;;;;;;;6.10;4.50;;;;;;;;;;5113989;28;20521;-57
2021/07/25 13:40:17;;;;;;;16.00;10.07;;;;;;;;;;5109505;28;20513;-56
2021/07/25 13:42:45;;;;;;;5.50;4.07;;;;;;;;;;5095275;28;20517;-54
2021/07/25 13:45:13;;;;;;;5.87;3.87;;;;;;;;;;5094814;28;20452;-56
2021/07/25 13:47:42;;;;;;;3.37;1.83;;;;;;;;;;5113268;28;20455;-55
2021/07/25 13:50:10;;;;;;;5.10;2.27;;;;;;;;;;5112449;28;20764;-54
2021/07/25 13:52:37;;;;;;;3.93;2.03;;;;;;;;;;5112323;28;20467;-56
2021/07/25 13:55:12;;;;;;;4.00;1.90;;;;;;;;;;5113076;28;20455;-54
2021/07/25 13:57:40;;;;;;;4.90;3.20;;;;;;;;;;5112686;28;20483;-56
2021/07/25 14:00:16;;;;;;;3.20;2.03;;;;;;;;;;5098599;28;20465;-56
2021/07/25 14:02:47;;;;;;;7.40;5.10;;;;;;;;;;5092692;28;20455;-57
2021/07/25 14:05:15;;;;;;;6.50;3.27;;;;;;;;;;5091718;28;20476;-55
2021/07/25 14:07:50;;;;;;;5.73;2.37;;;;;;;;;;5092286;28;20452;-57
2021/07/25 14:10:28;;;;;;;8.07;6.03;;;;;;;;;;5091598;28;20432;-57
2021/07/25 14:12:56;;;;;;;6.73;4.70;;;;;;;;;;5097592;28;20493;-55
2021/07/25 14:15:25;;;;;;;7.23;2.50;;;;;;;;;;5113209;28;20496;-57
2021/07/25 14:17:55;;;;;;;6.20;2.70;;;;;;;;;;5112286;28;20498;-57
2021/07/25 14:20:26;;;;;;;5.73;3.70;;;;;;;;;;5080989;28;20439;-55
2021/07/25 14:22:53;;;;;;;5.40;3.10;;;;;;;;;;5091862;28;20456;-58
2021/07/25 14:25:20;;;;;;;7.53;5.60;;;;;;;;;;5098445;28;20497;-57
2021/07/25 14:27:48;;;;;;;5.63;2.97;;;;;;;;;;5093863;28;20432;-56
2021/07/25 14:30:26;;;;;;;5.63;2.57;;;;;;;;;;5099194;28;20510;-59
2021/07/25 14:33:06;;;;;;;4.90;2.70;;;;;;;;;;5090489;28;20448;-56
2021/07/25 14:35:34;;;;;;;7.90;5.57;;;;;;;;;;5097788;28;20439;-57
2021/07/25 14:38:02;;;;;;;4.63;3.33;;;;;;;;;;5110953;28;20572;-57
2021/07/25 14:40:30;;;;;;;6.73;5.80;;;;;;;;;;5104961;28;20452;-59
2021/07/25 14:42:58;;;;;;;7.97;4.00;;;;;;;;;;5090205;28;20470;-56
2021/07/25 14:46:09;;;;;;;5.57;4.20;;;;;;;;;;5108560;28;20489;-57
2021/07/25 14:48:39;;;;;;;6.90;3.53;;;;;;;;;;5111259;28;20447;-58
2021/07/25 14:51:07;;;;;;;9.40;7.40;;;;;;;;;;5092562;28;20444;-58
2021/07/25 14:53:35;;;;;;;6.27;4.40;;;;;;;;;;5095620;28;20499;-57
2021/07/25 14:56:07;;;;;;;5.10;2.93;;;;;;;;;;5088870;28;20452;-58
2021/07/25 15:02:15;;;;;;;4.30;2.50;;;;;;;;;;5107205;28;20470;-57
2021/07/25 15:04:49;;;;;;;5.40;3.27;;;;;;;;;;5091798;28;20468;-59
2021/07/25 15:07:16;;;;;;;10.57;4.00;;;;;;;;;;5089980;28;20567;-59
2021/07/25 15:10:07;;;;;;;8.30;4.33;;;;;;;;;;5093598;28;20466;-58
2021/07/25 15:12:35;;;;;;;3.90;2.80;;;;;;;;;;5111099;28;20545;-58
2021/07/25 15:15:04;;;;;;;4.20;2.50;;;;;;;;;;5105995;28;20517;-59
2021/07/25 15:17:36;;;;;;;4.80;3.10;;;;;;;;;;5111823;28;20455;-58
2021/07/25 15:20:06;;;;;;;6.20;4.50;;;;;;;;;;5095581;28;20502;-57
2021/07/25 15:22:34;;;;;;;5.60;2.90;;;;;;;;;;5107772;28;20455;-59
2021/07/25 15:25:20;;;;;;;7.03;3.27;;;;;;;;;;5108600;28;20477;-59
2021/07/25 15:27:50;;;;;;;7.80;4.27;;;;;;;;;;5110180;28;20440;-58
2021/07/25 15:32:55;;;;;;;6.33;3.73;;;;;;;;;;5108220;28;20520;-59
2021/07/25 15:35:37;;;;;;;5.43;2.50;;;;;;;;;;5101483;28;20225;-57
2021/07/25 15:38:05;;;;;;;4.50;2.60;;;;;;;;;;5097784;28;20536;-58